sensor_id;sensor_type;location;lat;lon;timestamp;pressure;altitude;pressure_sealevel;temperature;humidity
65756;BME280;69208;47.502;18.940;2023-11-18T00:00:04;98038.69;;;2.19;98.61
65756;BME280;69208;47.502;18.940;2023-11-18T00:01:14;98042.53;;;2.17;98.87
65756;BME280;69208;47.502;18.940;2023-11-18T00:02:17;98046.19;;;2.21;98.38
65756;BME280;69208;47.502;18.940;2023-11-18T00:03:21;98043.84;;;2.19;98.54
65756;BME280;69208;47.502;18.940;2023-11-18T00:04:24;98044.34;;;2.16;98.80
65756;BME280;69208;47.502;18.940;2023-11-18T00:05:27;98046.59;;;2.13;98.92
65756;BME280;69208;47.502;18.940;2023-11-18T00:06:31;98039.47;;;2.20;98.73
65756;BME280;69208;47.502;18.940;2023-11-18T00:07:34;98048.53;;;2.22;98.61
65756;BME280;69208;47.502;18.940;2023-11-18T00:08:38;98038.22;;;2.22;98.32
65756;BME280;69208;47.502;18.940;2023-11-18T00:09:41;98061.94;;;2.19;98.45
65756;BME280;69208;47.502;18.940;2023-11-18T00:10:48;98050.66;;;2.25;97.83
65756;BME280;69208;47.502;18.940;2023-11-18T00:11:51;98047.75;;;2.22;98.02
65756;BME280;69208;47.502;18.940;2023-11-18T00:12:54;98049.81;;;2.20;98.37
65756;BME280;69208;47.502;18.940;2023-11-18T00:13:57;98047.28;;;2.25;98.01
65756;BME280;69208;47.502;18.940;2023-11-18T00:15:03;98049.31;;;2.23;98.37
65756;BME280;69208;47.502;18.940;2023-11-18T00:16:07;98042.03;;;2.20;98.58
65756;BME280;69208;47.502;18.940;2023-11-18T00:17:14;98049.03;;;2.19;98.60
65756;BME280;69208;47.502;18.940;2023-11-18T00:18:18;98055.44;;;2.17;98.49
65756;BME280;69208;47.502;18.940;2023-11-18T00:19:22;98049.25;;;2.18;98.41
65756;BME280;69208;47.502;18.940;2023-11-18T00:20:25;98044.00;;;2.13;98.82
65756;BME280;69208;47.502;18.940;2023-11-18T00:21:28;98066.56;;;2.17;98.64
65756;BME280;69208;47.502;18.940;2023-11-18T00:22:31;98045.81;;;2.12;99.08
65756;BME280;69208;47.502;18.940;2023-11-18T00:23:34;98059.84;;;2.16;98.93
65756;BME280;69208;47.502;18.940;2023-11-18T00:24:37;98050.81;;;2.19;98.72
65756;BME280;69208;47.502;18.940;2023-11-18T00:25:41;98060.84;;;2.15;98.43
65756;BME280;69208;47.502;18.940;2023-11-18T00:26:44;98050.81;;;2.19;98.60
65756;BME280;69208;47.502;18.940;2023-11-18T00:27:47;98055.69;;;2.15;98.65
65756;BME280;69208;47.502;18.940;2023-11-18T00:28:50;98045.41;;;2.20;98.50
65756;BME280;69208;47.502;18.940;2023-11-18T00:29:53;98041.50;;;2.18;98.80
65756;BME280;69208;47.502;18.940;2023-11-18T00:30:57;98045.62;;;2.19;98.61
65756;BME280;69208;47.502;18.940;2023-11-18T00:32:03;98050.97;;;2.12;98.63
65756;BME280;69208;47.502;18.940;2023-11-18T00:33:07;98052.09;;;2.16;98.69
65756;BME280;69208;47.502;18.940;2023-11-18T00:34:11;98055.97;;;2.19;98.40
65756;BME280;69208;47.502;18.940;2023-11-18T00:35:14;98058.03;;;2.17;98.57
65756;BME280;69208;47.502;18.940;2023-11-18T00:36:18;98052.00;;;2.11;98.84
65756;BME280;69208;47.502;18.940;2023-11-18T00:37:21;98055.94;;;2.14;98.71
65756;BME280;69208;47.502;18.940;2023-11-18T00:38:24;98059.03;;;2.16;98.73
65756;BME280;69208;47.502;18.940;2023-11-18T00:39:27;98061.62;;;2.16;98.72
65756;BME280;69208;47.502;18.940;2023-11-18T00:40:31;98063.44;;;2.15;98.56
65756;BME280;69208;47.502;18.940;2023-11-18T00:41:34;98055.69;;;2.15;98.73
65756;BME280;69208;47.502;18.940;2023-11-18T00:42:37;98058.75;;;2.12;98.88
65756;BME280;69208;47.502;18.940;2023-11-18T00:43:41;98058.91;;;2.05;98.99
65756;BME280;69208;47.502;18.940;2023-11-18T00:44:44;98064.69;;;2.13;98.75
65756;BME280;69208;47.502;18.940;2023-11-18T00:45:47;98057.00;;;2.18;98.48
65756;BME280;69208;47.502;18.940;2023-11-18T00:46:50;98058.25;;;2.15;98.30
65756;BME280;69208;47.502;18.940;2023-11-18T00:47:54;98057.97;;;2.12;98.80
65756;BME280;69208;47.502;18.940;2023-11-18T00:48:57;98061.12;;;2.19;98.25
65756;BME280;69208;47.502;18.940;2023-11-18T00:50:01;98060.91;;;2.20;97.89
65756;BME280;69208;47.502;18.940;2023-11-18T00:51:06;98057.47;;;2.15;98.15
65756;BME280;69208;47.502;18.940;2023-11-18T00:52:09;98049.50;;;2.16;97.91
65756;BME280;69208;47.502;18.940;2023-11-18T00:53:13;98055.69;;;2.15;98.15
65756;BME280;69208;47.502;18.940;2023-11-18T00:54:16;98059.50;;;2.13;98.19
65756;BME280;69208;47.502;18.940;2023-11-18T00:55:19;98055.94;;;2.14;97.96
65756;BME280;69208;47.502;18.940;2023-11-18T00:56:23;98062.91;;;2.13;97.91
65756;BME280;69208;47.502;18.940;2023-11-18T00:57:26;98069.38;;;2.16;97.64
65756;BME280;69208;47.502;18.940;2023-11-18T00:58:29;98069.84;;;2.13;97.82
65756;BME280;69208;47.502;18.940;2023-11-18T00:59:32;98065.00;;;2.16;97.77
65756;BME280;69208;47.502;18.940;2023-11-18T01:00:35;98078.06;;;2.10;98.09
65756;BME280;69208;47.502;18.940;2023-11-18T01:01:39;98084.84;;;2.11;98.00
65756;BME280;69208;47.502;18.940;2023-11-18T01:02:43;98079.19;;;2.14;97.70
65756;BME280;69208;47.502;18.940;2023-11-18T01:03:46;98072.75;;;2.16;97.78
65756;BME280;69208;47.502;18.940;2023-11-18T01:04:50;98065.22;;;2.15;97.82
65756;BME280;69208;47.502;18.940;2023-11-18T01:05:53;98071.44;;;2.14;98.04
65756;BME280;69208;47.502;18.940;2023-11-18T01:06:56;98072.44;;;2.13;97.75
65756;BME280;69208;47.502;18.940;2023-11-18T01:08:00;98068.00;;;2.08;97.87
65756;BME280;69208;47.502;18.940;2023-11-18T01:09:03;98061.88;;;2.14;97.70
65756;BME280;69208;47.502;18.940;2023-11-18T01:10:07;98066.78;;;2.16;97.49
65756;BME280;69208;47.502;18.940;2023-11-18T01:11:19;98069.31;;;2.11;97.18
65756;BME280;69208;47.502;18.940;2023-11-18T01:12:22;98067.75;;;2.10;97.82
65756;BME280;69208;47.502;18.940;2023-11-18T01:13:26;98074.53;;;2.16;97.29
65756;BME280;69208;47.502;18.940;2023-11-18T01:14:29;98076.34;;;2.15;96.85
65756;BME280;69208;47.502;18.940;2023-11-18T01:15:32;98080.75;;;2.15;97.00
65756;BME280;69208;47.502;18.940;2023-11-18T01:16:35;98079.47;;;2.17;96.75
65756;BME280;69208;47.502;18.940;2023-11-18T01:17:39;98073.25;;;2.13;96.92
65756;BME280;69208;47.502;18.940;2023-11-18T01:18:42;98075.56;;;2.15;97.13
65756;BME280;69208;47.502;18.940;2023-11-18T01:19:46;98076.06;;;2.12;97.33
65756;BME280;69208;47.502;18.940;2023-11-18T01:20:50;98083.56;;;2.13;97.03
65756;BME280;69208;47.502;18.940;2023-11-18T01:21:54;98078.16;;;2.15;97.05
65756;BME280;69208;47.502;18.940;2023-11-18T01:22:58;98070.41;;;2.15;96.88
65756;BME280;69208;47.502;18.940;2023-11-18T01:24:02;98070.88;;;2.12;96.79
65756;BME280;69208;47.502;18.940;2023-11-18T01:25:06;98078.63;;;2.12;96.93
65756;BME280;69208;47.502;18.940;2023-11-18T01:26:09;98072.44;;;2.13;96.97
65756;BME280;69208;47.502;18.940;2023-11-18T01:27:15;98078.25;;;2.03;97.60
65756;BME280;69208;47.502;18.940;2023-11-18T01:28:18;98083.13;;;1.99;97.81
65756;BME280;69208;47.502;18.940;2023-11-18T01:29:21;98084.62;;;1.95;97.72
65756;BME280;69208;47.502;18.940;2023-11-18T01:30:25;98086.47;;;2.00;97.48
65756;BME280;69208;47.502;18.940;2023-11-18T01:31:29;98087.50;;;1.99;97.80
65756;BME280;69208;47.502;18.940;2023-11-18T01:32:49;98092.12;;;1.97;97.95
65756;BME280;69208;47.502;18.940;2023-11-18T01:33:53;98084.62;;;1.95;97.91
65756;BME280;69208;47.502;18.940;2023-11-18T01:34:58;98079.75;;;1.99;97.93
65756;BME280;69208;47.502;18.940;2023-11-18T01:36:02;98090.09;;;1.99;97.65
65756;BME280;69208;47.502;18.940;2023-11-18T01:37:06;98068.19;;;2.01;97.61
65756;BME280;69208;47.502;18.940;2023-11-18T01:38:10;98079.22;;;1.97;97.94
65756;BME280;69208;47.502;18.940;2023-11-18T01:39:15;98085.72;;;1.99;97.86
65756;BME280;69208;47.502;18.940;2023-11-18T01:40:20;98084.62;;;1.95;97.91
65756;BME280;69208;47.502;18.940;2023-11-18T01:41:23;98079.69;;;1.94;98.22
65756;BME280;69208;47.502;18.940;2023-11-18T01:42:27;98078.91;;;1.93;97.93
65756;BME280;69208;47.502;18.940;2023-11-18T01:43:31;98078.84;;;1.88;98.25
65756;BME280;69208;47.502;18.940;2023-11-18T01:44:34;98083.53;;;1.91;98.38
65756;BME280;69208;47.502;18.940;2023-11-18T01:45:38;98072.16;;;1.92;97.95
65756;BME280;69208;47.502;18.940;2023-11-18T01:46:42;98071.16;;;1.93;97.93
65756;BME280;69208;47.502;18.940;2023-11-18T01:47:49;98082.03;;;1.95;97.72
65756;BME280;69208;47.502;18.940;2023-11-18T01:48:52;98079.47;;;1.95;97.70
65756;BME280;69208;47.502;18.940;2023-11-18T01:49:55;98080.25;;;1.96;97.86
65756;BME280;69208;47.502;18.940;2023-11-18T01:50:59;98079.03;;;2.03;97.00
65756;BME280;69208;47.502;18.940;2023-11-18T01:52:04;98073.81;;;1.98;97.16
65756;BME280;69208;47.502;18.940;2023-11-18T01:53:11;98069.91;;;1.96;97.49
65756;BME280;69208;47.502;18.940;2023-11-18T01:54:17;98073.34;;;2.01;97.00
65756;BME280;69208;47.502;18.940;2023-11-18T01:55:22;98080.84;;;2.03;96.88
65756;BME280;69208;47.502;18.940;2023-11-18T01:56:26;98084.94;;;1.99;97.13
65756;BME280;69208;47.502;18.940;2023-11-18T01:57:30;98084.16;;;1.98;97.16
65756;BME280;69208;47.502;18.940;2023-11-18T01:58:34;98082.56;;;1.97;97.27
65756;BME280;69208;47.502;18.940;2023-11-18T01:59:38;98081.31;;;2.00;97.26
65756;BME280;69208;47.502;18.940;2023-11-18T02:00:43;98089.84;;;2.00;97.12
65756;BME280;69208;47.502;18.940;2023-11-18T02:01:52;98089.25;;;1.93;97.40
65756;BME280;69208;47.502;18.940;2023-11-18T02:03:02;98097.06;;;1.98;96.91
65756;BME280;69208;47.502;18.940;2023-11-18T02:04:05;98095.50;;;1.97;97.21
65756;BME280;69208;47.502;18.940;2023-11-18T02:05:10;98089.53;;;1.97;97.27
65756;BME280;69208;47.502;18.940;2023-11-18T02:06:16;98095.41;;;1.92;97.62
65756;BME280;69208;47.502;18.940;2023-11-18T02:07:19;98086.09;;;1.91;97.37
65756;BME280;69208;47.502;18.940;2023-11-18T02:08:23;98083.81;;;1.95;97.30
65756;BME280;69208;47.502;18.940;2023-11-18T02:09:27;98091.03;;;1.93;97.66
65756;BME280;69208;47.502;18.940;2023-11-18T02:10:31;98092.03;;;1.92;97.67
65756;BME280;69208;47.502;18.940;2023-11-18T02:12:57;98086.19;;;1.96;97.27
65756;BME280;69208;47.502;18.940;2023-11-18T02:14:13;98088.00;;;1.96;97.37
65756;BME280;69208;47.502;18.940;2023-11-18T02:15:20;98089.53;;;1.97;97.21
65756;BME280;69208;47.502;18.940;2023-11-18T02:16:26;98083.13;;;1.99;97.04
65756;BME280;69208;47.502;18.940;2023-11-18T02:17:31;98085.94;;;1.98;96.85
65756;BME280;69208;47.502;18.940;2023-11-18T02:18:38;98088.03;;;2.01;96.79
65756;BME280;69208;47.502;18.940;2023-11-18T02:19:44;98090.56;;;1.96;97.16
65756;BME280;69208;47.502;18.940;2023-11-18T02:20:49;98095.56;;;2.02;96.80
65756;BME280;69208;47.502;18.940;2023-11-18T02:21:54;98095.00;;;2.00;96.89
65756;BME280;69208;47.502;18.940;2023-11-18T02:22:57;98091.56;;;1.95;97.13
65756;BME280;69208;47.502;18.940;2023-11-18T02:24:01;98108.97;;;1.99;96.82
65756;BME280;69208;47.502;18.940;2023-11-18T02:25:06;98109.50;;;2.01;96.65
65756;BME280;69208;47.502;18.940;2023-11-18T02:26:21;98105.34;;;2.00;96.93
65756;BME280;69208;47.502;18.940;2023-11-18T02:27:24;98107.53;;;2.09;96.70
65756;BME280;69208;47.502;18.940;2023-11-18T02:28:29;98103.87;;;2.04;96.92
65756;BME280;69208;47.502;18.940;2023-11-18T02:29:38;98114.44;;;2.03;97.26
65756;BME280;69208;47.502;18.940;2023-11-18T02:30:44;98112.16;;;2.07;97.11
65756;BME280;69208;47.502;18.940;2023-11-18T02:31:52;98103.06;;;2.04;97.40
65756;BME280;69208;47.502;18.940;2023-11-18T02:33:00;98114.91;;;2.00;97.56
65756;BME280;69208;47.502;18.940;2023-11-18T02:34:14;98111.28;;;2.01;97.88
65756;BME280;69208;47.502;18.940;2023-11-18T02:35:30;98111.06;;;2.02;97.87
65756;BME280;69208;47.502;18.940;2023-11-18T02:36:44;98122.19;;;2.03;97.99
65756;BME280;69208;47.502;18.940;2023-11-18T02:37:50;98109.75;;;2.00;98.08
65756;BME280;69208;47.502;18.940;2023-11-18T02:38:58;98117.25;;;2.01;98.16
65756;BME280;69208;47.502;18.940;2023-11-18T02:40:04;98116.25;;;2.02;98.26
65756;BME280;69208;47.502;18.940;2023-11-18T02:41:18;98116.16;;;1.97;98.62
65756;BME280;69208;47.502;18.940;2023-11-18T02:42:23;98118.25;;;2.00;98.58
65756;BME280;69208;47.502;18.940;2023-11-18T02:43:27;98116.47;;;2.01;98.99
65756;BME280;69208;47.502;18.940;2023-11-18T02:44:32;98117.78;;;2.03;98.95
65756;BME280;69208;47.502;18.940;2023-11-18T02:45:37;98120.94;;;2.05;98.56
65756;BME280;69208;47.502;18.940;2023-11-18T02:46:40;98127.13;;;2.04;98.83
65756;BME280;69208;47.502;18.940;2023-11-18T02:47:46;98120.94;;;2.05;98.76
65756;BME280;69208;47.502;18.940;2023-11-18T02:48:50;98114.44;;;2.03;99.14
65756;BME280;69208;47.502;18.940;2023-11-18T02:49:56;98117.31;;;2.07;99.37
65756;BME280;69208;47.502;18.940;2023-11-18T02:51:01;98120.63;;;2.02;99.37
65756;BME280;69208;47.502;18.940;2023-11-18T02:52:05;98117.78;;;2.03;99.43
65756;BME280;69208;47.502;18.940;2023-11-18T02:53:08;98121.72;;;2.06;99.42
65756;BME280;69208;47.502;18.940;2023-11-18T02:54:12;98116.31;;;2.08;99.33
65756;BME280;69208;47.502;18.940;2023-11-18T02:55:15;98119.69;;;2.08;99.67
65756;BME280;69208;47.502;18.940;2023-11-18T02:56:19;98128.50;;;2.12;99.39
65756;BME280;69208;47.502;18.940;2023-11-18T02:57:22;98115.84;;;2.11;99.32
65756;BME280;69208;47.502;18.940;2023-11-18T02:58:25;98112.16;;;2.07;99.49
65756;BME280;69208;47.502;18.940;2023-11-18T02:59:28;98114.97;;;2.05;99.99
65756;BME280;69208;47.502;18.940;2023-11-18T03:00:34;98120.47;;;2.09;99.83
65756;BME280;69208;47.502;18.940;2023-11-18T03:01:37;98116.63;;;2.11;99.77
65756;BME280;69208;47.502;18.940;2023-11-18T03:02:44;98113.25;;;2.11;99.74
65756;BME280;69208;47.502;18.940;2023-11-18T03:03:49;98119.37;;;2.04;100.00
65756;BME280;69208;47.502;18.940;2023-11-18T03:04:52;98114.25;;;2.10;100.00
65756;BME280;69208;47.502;18.940;2023-11-18T03:05:55;98119.69;;;2.08;100.00
65756;BME280;69208;47.502;18.940;2023-11-18T03:06:59;98125.06;;;2.07;100.00
65756;BME280;69208;47.502;18.940;2023-11-18T03:08:02;98129.16;;;2.02;100.00
65756;BME280;69208;47.502;18.940;2023-11-18T03:09:09;98138.53;;;2.09;100.00
65756;BME280;69208;47.502;18.940;2023-11-18T03:10:13;98124.84;;;2.08;100.00
65756;BME280;69208;47.502;18.940;2023-11-18T03:11:24;98133.63;;;2.07;100.00
65756;BME280;69208;47.502;18.940;2023-11-18T03:12:27;98137.00;;;2.08;100.00
65756;BME280;69208;47.502;18.940;2023-11-18T03:13:31;98137.22;;;2.06;100.00
65756;BME280;69208;47.502;18.940;2023-11-18T03:14:35;98128.06;;;1.98;100.00
65756;BME280;69208;47.502;18.940;2023-11-18T03:15:38;98135.09;;;2.03;100.00
65756;BME280;69208;47.502;18.940;2023-11-18T03:16:41;98143.97;;;2.07;100.00
65756;BME280;69208;47.502;18.940;2023-11-18T03:17:49;98130.78;;;2.09;100.00
65756;BME280;69208;47.502;18.940;2023-11-18T03:18:53;98140.91;;;2.10;100.00
65756;BME280;69208;47.502;18.940;2023-11-18T03:19:58;98143.78;;;2.14;100.00
65756;BME280;69208;47.502;18.940;2023-11-18T03:21:01;98139.41;;;2.14;100.00
65756;BME280;69208;47.502;18.940;2023-11-18T03:22:05;98140.44;;;2.13;100.00
65756;BME280;69208;47.502;18.940;2023-11-18T03:23:08;98143.53;;;2.15;100.00
65756;BME280;69208;47.502;18.940;2023-11-18T03:24:12;98145.81;;;2.12;100.00
65756;BME280;69208;47.502;18.940;2023-11-18T03:25:15;98143.78;;;2.14;100.00
65756;BME280;69208;47.502;18.940;2023-11-18T03:26:19;98142.53;;;2.16;100.00
65756;BME280;69208;47.502;18.940;2023-11-18T03:27:22;98150.81;;;2.18;100.00
65756;BME280;69208;47.502;18.940;2023-11-18T03:28:26;98152.88;;;2.16;100.00
65756;BME280;69208;47.502;18.940;2023-11-18T03:29:29;98148.19;;;2.13;100.00
65756;BME280;69208;47.502;18.940;2023-11-18T03:30:32;98156.47;;;2.15;100.00
65756;BME280;69208;47.502;18.940;2023-11-18T03:31:36;98158.56;;;2.18;100.00
65756;BME280;69208;47.502;18.940;2023-11-18T03:32:39;98158.53;;;2.13;100.00
65756;BME280;69208;47.502;18.940;2023-11-18T03:33:43;98159.03;;;2.15;100.00
65756;BME280;69208;47.502;18.940;2023-11-18T03:34:46;98150.50;;;2.15;100.00
65756;BME280;69208;47.502;18.940;2023-11-18T03:35:49;98159.59;;;2.17;100.00
65756;BME280;69208;47.502;18.940;2023-11-18T03:36:52;98172.03;;;2.20;100.00
65756;BME280;69208;47.502;18.940;2023-11-18T03:37:55;98152.94;;;2.21;100.00
65756;BME280;69208;47.502;18.940;2023-11-18T03:38:58;98163.81;;;2.23;100.00
65756;BME280;69208;47.502;18.940;2023-11-18T03:40:02;98166.19;;;2.25;100.00
65756;BME280;69208;47.502;18.940;2023-11-18T03:41:05;98168.69;;;2.20;100.00
65756;BME280;69208;47.502;18.940;2023-11-18T03:42:11;98174.41;;;2.22;100.00
65756;BME280;69208;47.502;18.940;2023-11-18T03:43:14;98166.66;;;2.22;100.00
65756;BME280;69208;47.502;18.940;2023-11-18T03:44:18;98170.53;;;2.24;100.00
65756;BME280;69208;47.502;18.940;2023-11-18T03:45:21;98165.63;;;2.23;100.00
65756;BME280;69208;47.502;18.940;2023-11-18T03:46:25;98167.44;;;2.22;100.00
65756;BME280;69208;47.502;18.940;2023-11-18T03:47:37;98163.50;;;2.20;100.00
65756;BME280;69208;47.502;18.940;2023-11-18T03:48:43;98173.38;;;2.23;100.00
65756;BME280;69208;47.502;18.940;2023-11-18T03:49:47;98173.69;;;2.26;100.00
65756;BME280;69208;47.502;18.940;2023-11-18T03:50:50;98175.19;;;2.22;100.00
65756;BME280;69208;47.502;18.940;2023-11-18T03:51:54;98182.50;;;2.31;100.00
65756;BME280;69208;47.502;18.940;2023-11-18T03:52:57;98173.50;;;2.33;100.00
65756;BME280;69208;47.502;18.940;2023-11-18T03:54:01;98179.72;;;2.32;100.00
65756;BME280;69208;47.502;18.940;2023-11-18T03:55:04;98178.94;;;2.32;100.00
65756;BME280;69208;47.502;18.940;2023-11-18T03:56:08;98172.44;;;2.29;100.00
65756;BME280;69208;47.502;18.940;2023-11-18T03:57:11;98175.25;;;2.27;100.00
65756;BME280;69208;47.502;18.940;2023-11-18T03:58:15;98177.28;;;2.25;100.00
65756;BME280;69208;47.502;18.940;2023-11-18T03:59:18;98177.53;;;2.24;100.00
65756;BME280;69208;47.502;18.940;2023-11-18T04:00:21;98180.34;;;2.22;100.00
65756;BME280;69208;47.502;18.940;2023-11-18T04:01:25;98177.59;;;2.29;100.00
65756;BME280;69208;47.502;18.940;2023-11-18T04:02:32;98182.50;;;2.31;100.00
65756;BME280;69208;47.502;18.940;2023-11-18T04:03:39;98185.09;;;2.31;100.00
65756;BME280;69208;47.502;18.940;2023-11-18T04:04:43;98182.78;;;2.29;100.00
65756;BME280;69208;47.502;18.940;2023-11-18T04:05:45;98202.13;;;2.26;100.00
65756;BME280;69208;47.502;18.940;2023-11-18T04:06:51;98192.81;;;2.25;100.00
65756;BME280;69208;47.502;18.940;2023-11-18T04:07:54;98201.91;;;2.28;100.00
65756;BME280;69208;47.502;18.940;2023-11-18T04:08:57;98187.69;;;2.31;100.00
65756;BME280;69208;47.502;18.940;2023-11-18T04:10:00;98201.41;;;2.31;100.00
65756;BME280;69208;47.502;18.940;2023-11-18T04:11:03;98199.53;;;2.26;100.00
65756;BME280;69208;47.502;18.940;2023-11-18T04:12:07;98198.75;;;2.26;100.00
65756;BME280;69208;47.502;18.940;2023-11-18T04:13:10;98195.22;;;2.32;100.00
65756;BME280;69208;47.502;18.940;2023-11-18T04:14:14;98198.84;;;2.31;100.00
65756;BME280;69208;47.502;18.940;2023-11-18T04:15:17;98202.72;;;2.34;100.00
65756;BME280;69208;47.502;18.940;2023-11-18T04:16:20;98200.63;;;2.31;100.00
65756;BME280;69208;47.502;18.940;2023-11-18T04:17:23;98202.19;;;2.32;100.00
65756;BME280;69208;47.502;18.940;2023-11-18T04:18:30;98197.50;;;2.28;100.00
65756;BME280;69208;47.502;18.940;2023-11-18T04:19:34;98202.66;;;2.28;100.00
65756;BME280;69208;47.502;18.940;2023-11-18T04:20:38;98201.91;;;2.28;100.00
65756;BME280;69208;47.502;18.940;2023-11-18T04:21:41;98207.75;;;2.23;100.00
65756;BME280;69208;47.502;18.940;2023-11-18T04:22:44;98205.66;;;2.20;100.00
65756;BME280;69208;47.502;18.940;2023-11-18T04:23:48;98202.37;;;2.25;100.00
65756;BME280;69208;47.502;18.940;2023-11-18T04:24:52;98205.25;;;2.28;100.00
65756;BME280;69208;47.502;18.940;2023-11-18T04:25:55;98208.53;;;2.24;100.00
65756;BME280;69208;47.502;18.940;2023-11-18T04:26:58;98204.16;;;2.24;100.00
65756;BME280;69208;47.502;18.940;2023-11-18T04:28:02;98211.69;;;2.26;100.00
65756;BME280;69208;47.502;18.940;2023-11-18T04:29:05;98211.44;;;2.27;100.00
65756;BME280;69208;47.502;18.940;2023-11-18T04:30:08;98201.41;;;2.31;100.00
65756;BME280;69208;47.502;18.940;2023-11-18T04:31:12;98194.34;;;2.26;100.00
65756;BME280;69208;47.502;18.940;2023-11-18T04:32:16;98209.31;;;2.24;100.00
65756;BME280;69208;47.502;18.940;2023-11-18T04:33:19;98208.06;;;2.27;100.00
65756;BME280;69208;47.502;18.940;2023-11-18T04:34:22;98206.59;;;2.31;100.00
65756;BME280;69208;47.502;18.940;2023-11-18T04:35:26;98210.25;;;2.35;100.00
65756;BME280;69208;47.502;18.940;2023-11-18T04:36:29;98224.22;;;2.34;100.00
65756;BME280;69208;47.502;18.940;2023-11-18T04:37:34;98215.19;;;2.37;100.00
65756;BME280;69208;47.502;18.940;2023-11-18T04:38:37;98214.34;;;2.31;100.00
65756;BME280;69208;47.502;18.940;2023-11-18T04:39:41;98213.78;;;2.29;100.00
65756;BME280;69208;47.502;18.940;2023-11-18T04:40:45;98218.97;;;2.29;100.00
65756;BME280;69208;47.502;18.940;2023-11-18T04:41:48;98220.00;;;2.28;100.00
65756;BME280;69208;47.502;18.940;2023-11-18T04:42:51;98211.19;;;2.29;100.00
65756;BME280;69208;47.502;18.940;2023-11-18T04:43:54;98229.28;;;2.29;100.00
65756;BME280;69208;47.502;18.940;2023-11-18T04:44:58;98230.94;;;2.35;100.00
65756;BME280;69208;47.502;18.940;2023-11-18T04:46:02;98235.31;;;2.35;100.00
65756;BME280;69208;47.502;18.940;2023-11-18T04:47:05;98224.91;;;2.30;100.00
65756;BME280;69208;47.502;18.940;2023-11-18T04:48:09;98247.47;;;2.34;100.00
65756;BME280;69208;47.502;18.940;2023-11-18T04:49:13;98229.12;;;2.36;100.00
65756;BME280;69208;47.502;18.940;2023-11-18T04:50:16;98231.41;;;2.32;100.00
65756;BME280;69208;47.502;18.940;2023-11-18T04:51:19;98227.78;;;2.33;100.00
65756;BME280;69208;47.502;18.940;2023-11-18T04:52:24;98228.13;;;2.37;100.00
65756;BME280;69208;47.502;18.940;2023-11-18T04:53:27;98220.59;;;2.35;100.00
65756;BME280;69208;47.502;18.940;2023-11-18T04:54:30;98217.47;;;2.33;100.00
65756;BME280;69208;47.502;18.940;2023-11-18T04:55:34;98217.22;;;2.35;100.00
65756;BME280;69208;47.502;18.940;2023-11-18T04:56:37;98235.31;;;2.35;100.00
65756;BME280;69208;47.502;18.940;2023-11-18T04:57:41;98234.00;;;2.32;100.00
65756;BME280;69208;47.502;18.940;2023-11-18T04:58:44;98229.38;;;2.34;100.00
65756;BME280;69208;47.502;18.940;2023-11-18T04:59:49;98226.25;;;2.32;100.00
65756;BME280;69208;47.502;18.940;2023-11-18T05:00:53;98226.47;;;2.31;100.00
65756;BME280;69208;47.502;18.940;2023-11-18T05:01:55;98232.97;;;2.33;100.00
65756;BME280;69208;47.502;18.940;2023-11-18T05:02:59;98230.63;;;2.32;100.00
65756;BME280;69208;47.502;18.940;2023-11-18T05:04:02;98230.63;;;2.32;100.00
65756;BME280;69208;47.502;18.940;2023-11-18T05:05:06;98235.31;;;2.35;100.00
65756;BME280;69208;47.502;18.940;2023-11-18T05:06:09;98227.88;;;2.38;100.00
65756;BME280;69208;47.502;18.940;2023-11-18T05:07:13;98228.13;;;2.37;100.00
65756;BME280;69208;47.502;18.940;2023-11-18T05:08:20;98230.38;;;2.33;100.00
65756;BME280;69208;47.502;18.940;2023-11-18T05:09:24;98230.38;;;2.33;100.00
65756;BME280;69208;47.502;18.940;2023-11-18T05:10:28;98238.13;;;2.33;100.00
65756;BME280;69208;47.502;18.940;2023-11-18T05:11:30;98244.88;;;2.34;100.00
65756;BME280;69208;47.502;18.940;2023-11-18T05:12:33;98249.13;;;2.40;100.00
65756;BME280;69208;47.502;18.940;2023-11-18T05:13:37;98255.16;;;2.46;100.00
65756;BME280;69208;47.502;18.940;2023-11-18T05:14:40;98255.37;;;2.44;100.00
65756;BME280;69208;47.502;18.940;2023-11-18T05:15:44;98255.75;;;2.36;100.00
65756;BME280;69208;47.502;18.940;2023-11-18T05:16:47;98248.25;;;2.35;100.00
65756;BME280;69208;47.502;18.940;2023-11-18T05:17:54;98260.41;;;2.34;100.00
65756;BME280;69208;47.502;18.940;2023-11-18T05:18:57;98256.00;;;2.35;100.00
65756;BME280;69208;47.502;18.940;2023-11-18T05:20:00;98252.41;;;2.36;100.00
65756;BME280;69208;47.502;18.940;2023-11-18T05:21:04;98247.47;;;2.34;100.00
65756;BME280;69208;47.502;18.940;2023-11-18T05:22:08;98264.22;;;2.32;100.00
65756;BME280;69208;47.502;18.940;2023-11-18T05:23:12;98257.25;;;2.32;100.00
65756;BME280;69208;47.502;18.940;2023-11-18T05:24:15;98258.81;;;2.33;100.00
65756;BME280;69208;47.502;18.940;2023-11-18T05:25:19;98249.19;;;2.28;100.00
65756;BME280;69208;47.502;18.940;2023-11-18T05:26:22;98251.78;;;2.28;100.00
65756;BME280;69208;47.502;18.940;2023-11-18T05:27:25;98252.56;;;2.29;100.00
65756;BME280;69208;47.502;18.940;2023-11-18T05:28:29;98262.03;;;2.23;100.00
65756;BME280;69208;47.502;18.940;2023-11-18T05:29:33;98262.03;;;2.23;100.00
65756;BME280;69208;47.502;18.940;2023-11-18T05:30:37;98258.41;;;2.24;100.00
65756;BME280;69208;47.502;18.940;2023-11-18T05:31:41;98266.34;;;2.18;100.00
65756;BME280;69208;47.502;18.940;2023-11-18T05:32:44;98256.09;;;2.23;100.00
65756;BME280;69208;47.502;18.940;2023-11-18T05:33:47;98257.81;;;2.17;100.00
65756;BME280;69208;47.502;18.940;2023-11-18T05:34:54;98257.34;;;2.20;100.00
65756;BME280;69208;47.502;18.940;2023-11-18T05:36:00;98265.97;;;2.26;100.00
65756;BME280;69208;47.502;18.940;2023-11-18T05:37:04;98262.59;;;2.25;100.00
65756;BME280;69208;47.502;18.940;2023-11-18T05:38:07;98257.72;;;2.29;100.00
65756;BME280;69208;47.502;18.940;2023-11-18T05:39:10;98259.28;;;2.30;100.00